Time;durP1;ratioP1;P1;durP2;ratioP2;P2;SDS_P1;SDS_P2;PMS_P1;PMS_P2;Temp;Humidity;BMP_temperature;BMP_pressure;BME280_temperature;BME280_humidity;BME280_pressure;Samples;Min_cycle;Max_cycle;Signal;HPM_P1;HPM_P2
2023/12/14 00:01:41;;;;;;;9.18;2.85;;;;;;;-144.73;100.00;54713.53;4981994;28;20072;-72
2023/12/14 00:04:07;;;;;;;9.63;3.08;;;;;;;-144.73;100.00;54719.69;4976859;28;20034;-72
2023/12/14 00:06:33;;;;;;;7.30;2.85;;;;;;;-144.73;100.00;54732.00;4979005;28;20134;-72
2023/12/14 00:08:58;;;;;;;4.75;2.78;;;;;;;-144.73;100.00;54717.66;4981346;28;20046;-72
2023/12/14 00:11:24;;;;;;;6.30;2.67;;;;;;;-144.73;100.00;54727.91;4983510;28;20113;-72
2023/12/14 00:13:49;;;;;;;8.70;2.80;;;;;;;-144.73;100.00;54703.28;4980755;28;20042;-73
2023/12/14 00:16:15;;;;;;;7.63;2.97;;;;;;;-144.73;100.00;54723.81;4985295;28;20077;-73
2023/12/14 00:18:40;;;;;;;7.97;3.20;;;;;;;-144.73;100.00;54744.31;4973273;28;20038;-73
2023/12/14 00:21:08;;;;;;;7.47;2.42;;;;;;;-144.73;100.00;54711.47;4980255;28;20071;-73
2023/12/14 00:23:33;;;;;;;5.90;2.45;;;;;;;-144.73;100.00;54711.47;4984064;28;20108;-73
2023/12/14 00:25:59;;;;;;;7.40;2.83;;;;;;;-144.73;100.00;54736.13;4987670;28;20122;-73
2023/12/14 00:28:24;;;;;;;7.00;2.80;;;;;;;-144.73;100.00;54725.84;4984531;28;20034;-71
2023/12/14 00:30:50;;;;;;;12.38;3.00;;;;;;;-144.73;100.00;54746.38;4980536;28;20037;-72
2023/12/14 00:33:15;;;;;;;8.23;2.70;;;;;;;-144.73;100.00;54715.59;4977246;28;20074;-73
2023/12/14 00:35:40;;;;;;;9.77;2.42;;;;;;;-144.73;100.00;54723.81;4981478;28;20037;-72
2023/12/14 00:38:06;;;;;;;8.07;2.80;;;;;;;-144.73;100.00;54695.06;4978348;28;20133;-72
2023/12/14 00:40:31;;;;;;;9.13;2.47;;;;;;;-144.73;100.00;54736.13;4975089;28;20030;-73
2023/12/14 00:42:57;;;;;;;10.80;2.40;;;;;;;-144.73;100.00;54707.38;4984593;28;20062;-72
2023/12/14 00:45:22;;;;;;;5.90;2.45;;;;;;;-144.73;100.00;54732.00;4975274;28;20077;-72
2023/12/14 00:47:47;;;;;;;6.00;2.47;;;;;;;-144.73;100.00;54732.00;4982233;28;20043;-73
2023/12/14 00:50:13;;;;;;;8.75;2.40;;;;;;;-144.73;100.00;54740.22;4984757;28;20040;-72
2023/12/14 00:52:38;;;;;;;8.10;2.75;;;;;;;-144.73;100.00;54721.75;4986407;28;20062;-73
2023/12/14 00:55:04;;;;;;;6.95;1.98;;;;;;;-144.73;100.00;54690.97;4985118;28;20039;-72
2023/12/14 00:57:29;;;;;;;15.68;2.75;;;;;;;-144.73;100.00;54723.81;4979412;28;20034;-73
2023/12/14 00:59:55;;;;;;;6.15;2.25;;;;;;;-144.73;100.00;54717.66;4977616;28;20026;-71
2023/12/14 01:02:20;;;;;;;5.53;1.80;;;;;;;-144.73;100.00;54756.66;4981581;28;20111;-71
2023/12/14 01:04:45;;;;;;;5.88;2.10;;;;;;;-144.73;100.00;54727.91;4979890;28;20041;-73
2023/12/14 01:07:11;;;;;;;5.45;2.17;;;;;;;-144.73;100.00;54715.59;4978131;28;20031;-72
2023/12/14 01:09:36;;;;;;;5.88;2.13;;;;;;;-144.73;100.00;54740.22;4985395;28;20022;-72
2023/12/14 01:12:02;;;;;;;9.75;2.20;;;;;;;-144.73;100.00;54715.59;4977167;28;20097;-72
2023/12/14 01:14:27;;;;;;;5.28;2.10;;;;;;;-144.73;100.00;54715.59;4982325;28;20054;-72
2023/12/14 01:16:52;;;;;;;6.07;2.33;;;;;;;-144.73;100.00;54695.06;4980034;28;20026;-72
2023/12/14 01:19:18;;;;;;;4.55;2.17;;;;;;;-144.73;100.00;54727.91;4982539;28;20057;-72
2023/12/14 01:21:43;;;;;;;9.43;3.28;;;;;;;-144.73;100.00;54719.69;4981832;28;20045;-72
2023/12/14 01:24:08;;;;;;;8.15;3.42;;;;;;;-144.73;100.00;54649.91;4981048;28;20027;-72
2023/12/14 01:26:34;;;;;;;13.75;3.35;;;;;;;-144.73;100.00;54727.91;4979776;28;20053;-72
2023/12/14 01:29:02;;;;;;;10.45;2.63;;;;;;;-144.73;100.00;54690.97;4987100;28;20039;-72
2023/12/14 01:31:28;;;;;;;10.48;2.90;;;;;;;-144.73;100.00;54732.00;4976088;28;20104;-72
2023/12/14 01:33:53;;;;;;;7.95;2.60;;;;;;;-144.73;100.00;54744.31;4973279;28;20122;-74
2023/12/14 01:36:23;;;;;;;17.17;2.88;;;;;;;-144.73;100.00;54740.22;4981941;28;20030;-72
2023/12/14 01:38:49;;;;;;;12.32;2.97;;;;;;;-144.73;100.00;54715.59;4974946;28;20058;-73
2023/12/14 01:41:14;;;;;;;10.70;2.80;;;;;;;-144.73;100.00;54748.44;4974756;28;20018;-73
2023/12/14 01:43:40;;;;;;;10.60;2.60;;;;;;;-144.73;100.00;54740.22;4973561;28;20035;-71
2023/12/14 01:46:08;;;;;;;13.65;3.25;;;;;;;-144.73;100.00;54711.47;4978200;28;20085;-74
2023/12/14 01:48:33;;;;;;;5.10;2.38;;;;;;;-144.73;100.00;54715.59;4976991;28;20042;-73
2023/12/14 01:50:59;;;;;;;11.02;2.67;;;;;;;-144.73;100.00;54703.28;4983791;28;20026;-73
2023/12/14 01:53:24;;;;;;;9.75;2.53;;;;;;;-144.73;100.00;54711.47;4971240;28;20035;-72
2023/12/14 01:55:49;;;;;;;10.20;2.67;;;;;;;-144.73;100.00;54727.91;4978047;28;20034;-71
2023/12/14 01:58:15;;;;;;;6.95;2.70;;;;;;;-144.73;100.00;54723.81;4977218;28;20118;-72
2023/12/14 02:00:55;;;;;;;8.32;2.30;;;;;;;-144.73;100.00;54738.16;4978108;28;20132;-72
2023/12/14 02:03:21;;;;;;;5.88;2.13;;;;;;;-144.73;100.00;54717.66;4977216;28;20039;-71
2023/12/14 02:05:46;;;;;;;4.00;1.77;;;;;;;-144.73;100.00;54711.47;4980117;28;20102;-72
2023/12/14 02:08:11;;;;;;;4.05;2.00;;;;;;;-144.73;100.00;54764.84;4979365;28;20051;-72
2023/12/14 02:10:37;;;;;;;6.68;2.00;;;;;;;-144.73;100.00;54756.66;4986357;28;20110;-72
2023/12/14 02:13:02;;;;;;;9.20;2.13;;;;;;;-144.73;100.00;54752.53;4981546;28;20054;-72
2023/12/14 02:15:29;;;;;;;6.38;1.92;;;;;;;-144.73;100.00;54719.69;4979972;28;20441;-71
2023/12/14 02:17:54;;;;;;;6.25;2.13;;;;;;;-144.73;100.00;54748.44;4980156;28;20044;-73
2023/12/14 02:20:20;;;;;;;6.72;2.50;;;;;;;-144.73;100.00;54732.00;4973801;28;20054;-73
2023/12/14 02:23:03;;;;;;;5.28;1.92;;;;;;;-144.73;100.00;54729.97;4977048;28;20519;-73
2023/12/14 02:25:29;;;;;;;6.68;2.42;;;;;;;-144.73;100.00;54719.69;4982240;28;20066;-73
2023/12/14 02:27:54;;;;;;;9.85;2.22;;;;;;;-144.73;100.00;54732.00;4975254;28;20494;-73
2023/12/14 02:30:20;;;;;;;8.63;2.13;;;;;;;-144.73;100.00;54719.69;4978416;28;20038;-73
2023/12/14 02:32:45;;;;;;;10.65;2.67;;;;;;;-144.73;100.00;54727.91;4976721;28;20070;-73
2023/12/14 02:35:11;;;;;;;9.35;2.88;;;;;;;-144.73;100.00;54764.84;4983499;28;20054;-73
2023/12/14 02:37:37;;;;;;;8.30;2.72;;;;;;;-144.73;100.00;54727.91;4976499;28;20138;-73
2023/12/14 02:40:04;;;;;;;9.05;2.67;;;;;;;-144.73;100.00;54719.69;4979048;28;20121;-73
2023/12/14 02:42:30;;;;;;;7.13;2.25;;;;;;;-144.73;100.00;54732.00;4970621;28;20054;-72
2023/12/14 02:44:56;;;;;;;4.88;2.55;;;;;;;-144.73;100.00;54715.59;4974256;28;20019;-73
2023/12/14 02:47:21;;;;;;;8.40;3.03;;;;;;;-144.73;100.00;54715.59;4974835;28;20031;-73
2023/12/14 02:49:47;;;;;;;11.57;3.28;;;;;;;-144.73;100.00;54752.53;4974343;28;20038;-73
2023/12/14 02:52:12;;;;;;;8.85;2.88;;;;;;;-144.73;100.00;54748.44;4977521;28;20094;-73
2023/12/14 02:54:39;;;;;;;5.68;2.20;;;;;;;-144.73;100.00;54748.44;4979874;28;20026;-73
2023/12/14 02:57:04;;;;;;;7.60;2.70;;;;;;;-144.73;100.00;54715.59;4980376;28;20057;-73
2023/12/14 02:59:29;;;;;;;9.52;2.90;;;;;;;-144.73;100.00;54705.31;4982590;28;20129;-73
2023/12/14 03:01:55;;;;;;;9.15;3.08;;;;;;;-144.73;100.00;54764.84;4983602;28;20054;-73
2023/12/14 03:04:20;;;;;;;4.68;2.58;;;;;;;-144.73;100.00;54711.47;4979091;28;20038;-73
2023/12/14 03:06:46;;;;;;;8.52;2.30;;;;;;;-144.73;100.00;54732.00;4983151;28;20041;-73
2023/12/14 03:09:11;;;;;;;10.85;2.80;;;;;;;-144.73;100.00;54715.59;4983237;28;20429;-73
2023/12/14 03:11:36;;;;;;;11.45;2.55;;;;;;;-144.73;100.00;54719.69;4975076;28;20034;-73
2023/12/14 03:14:02;;;;;;;9.13;2.42;;;;;;;-144.73;100.00;54715.59;4974556;28;20054;-73
2023/12/14 03:16:27;;;;;;;8.40;2.53;;;;;;;-144.73;100.00;54686.84;4979368;28;20041;-73
2023/12/14 03:18:53;;;;;;;17.55;2.83;;;;;;;-144.73;100.00;54727.91;4977005;28;20048;-73
2023/12/14 03:21:19;;;;;;;10.75;2.50;;;;;;;-144.73;100.00;54721.75;4981234;28;20072;-73
2023/12/14 03:23:45;;;;;;;10.60;2.08;;;;;;;-144.73;100.00;54734.06;4978518;28;20043;-73
2023/12/14 03:26:10;;;;;;;7.20;2.33;;;;;;;-144.73;100.00;54715.59;4980625;28;20081;-71
2023/12/14 03:28:35;;;;;;;10.15;2.40;;;;;;;-144.73;100.00;54740.22;4976093;28;20042;-71
2023/12/14 03:31:02;;;;;;;8.55;2.47;;;;;;;-144.73;100.00;54678.63;4979674;28;20428;-71
2023/12/14 03:33:28;;;;;;;6.40;2.70;;;;;;;-144.73;100.00;54732.00;4982355;28;20113;-72
2023/12/14 03:35:53;;;;;;;9.40;2.72;;;;;;;-144.73;100.00;54752.53;4982072;28;20042;-72
2023/12/14 03:38:19;;;;;;;9.30;2.97;;;;;;;-144.73;100.00;54748.44;4978626;28;20070;-72
2023/12/14 03:40:44;;;;;;;7.07;2.88;;;;;;;-144.73;100.00;54736.13;4978899;28;20482;-72
2023/12/14 03:43:10;;;;;;;6.60;3.20;;;;;;;-144.73;100.00;54764.84;4978330;28;20127;-72
2023/12/14 03:45:35;;;;;;;12.32;2.92;;;;;;;-144.73;100.00;54752.53;4982000;28;20041;-72
2023/12/14 03:48:01;;;;;;;6.63;2.35;;;;;;;-144.73;100.00;54764.84;4980140;28;20038;-71
2023/12/14 03:50:27;;;;;;;12.80;3.13;;;;;;;-144.73;100.00;54678.63;4982060;28;20461;-72
2023/12/14 03:52:53;;;;;;;12.27;3.03;;;;;;;-144.73;100.00;54740.22;4975440;28;20050;-72
2023/12/14 03:55:18;;;;;;;6.55;2.42;;;;;;;-144.73;100.00;54705.31;4981645;28;20029;-72
2023/12/14 03:57:43;;;;;;;5.63;2.85;;;;;;;-144.73;100.00;54740.22;4982071;28;20047;-71
2023/12/14 04:00:13;;;;;;;4.85;2.78;;;;;;;-144.73;100.00;54719.69;4984314;28;20022;-72
2023/12/14 04:02:39;;;;;;;12.45;3.15;;;;;;;-144.73;100.00;54727.91;4979661;28;20433;-72
2023/12/14 04:05:06;;;;;;;6.90;2.35;;;;;;;-144.73;100.00;54719.69;4985133;28;20034;-72
2023/12/14 04:07:31;;;;;;;8.35;3.22;;;;;;;-144.73;100.00;54756.66;4985373;28;20502;-73
2023/12/14 04:09:57;;;;;;;7.32;2.13;;;;;;;-144.73;100.00;54709.44;4982240;28;20042;-72
2023/12/14 04:12:22;;;;;;;8.50;2.88;;;;;;;-144.73;100.00;54764.84;4981942;28;20031;-72
2023/12/14 04:14:48;;;;;;;4.60;2.60;;;;;;;-144.73;100.00;54729.97;4981017;28;20030;-73
2023/12/14 04:17:13;;;;;;;8.85;2.83;;;;;;;-144.73;100.00;54748.44;4984285;28;20121;-72
2023/12/14 04:19:39;;;;;;;7.53;2.40;;;;;;;-144.73;100.00;54719.69;4979628;28;20030;-72
2023/12/14 04:22:05;;;;;;;12.70;2.83;;;;;;;-144.73;100.00;54690.97;4977413;28;20837;-72
2023/12/14 04:24:30;;;;;;;12.65;2.70;;;;;;;-144.73;100.00;54721.75;4980356;28;20061;-72
2023/12/14 04:26:56;;;;;;;5.38;2.45;;;;;;;-144.73;100.00;54736.13;4977839;28;20042;-72
2023/12/14 04:29:21;;;;;;;10.00;2.90;;;;;;;-144.73;100.00;54697.13;4980219;28;20030;-72
2023/12/14 04:31:46;;;;;;;9.82;2.72;;;;;;;-144.73;100.00;54715.59;4978000;28;20027;-72
2023/12/14 04:34:15;;;;;;;6.10;2.90;;;;;;;-144.73;100.00;54674.53;4978415;28;20117;-72
2023/12/14 04:36:45;;;;;;;10.05;3.15;;;;;;;-144.73;100.00;54697.13;4981491;28;20034;-74
2023/12/14 04:39:10;;;;;;;12.85;2.80;;;;;;;-144.73;100.00;54699.16;4979973;28;20019;-73
2023/12/14 04:41:35;;;;;;;9.73;3.17;;;;;;;-144.73;100.00;54699.16;4977427;28;20037;-73
2023/12/14 04:44:01;;;;;;;12.50;2.78;;;;;;;-144.73;100.00;54723.81;4975508;28;20030;-73
2023/12/14 04:46:26;;;;;;;9.38;2.83;;;;;;;-144.73;100.00;54719.69;4980476;28;20034;-73
2023/12/14 04:48:51;;;;;;;6.20;3.45;;;;;;;-144.73;100.00;54709.44;4980366;28;20064;-72
2023/12/14 04:51:17;;;;;;;15.35;3.22;;;;;;;-144.73;100.00;54695.06;4983925;28;20117;-72
2023/12/14 04:53:42;;;;;;;10.45;3.70;;;;;;;-144.73;100.00;54715.59;4982968;28;20325;-73
2023/12/14 04:56:11;;;;;;;9.95;3.22;;;;;;;-144.73;100.00;54703.28;4978904;28;20054;-72
2023/12/14 04:58:38;;;;;;;15.55;3.70;;;;;;;-144.73;100.00;54713.53;4983199;28;20130;-72
2023/12/14 05:01:04;;;;;;;11.10;3.20;;;;;;;-144.73;100.00;54732.00;4980442;28;20027;-73
2023/12/14 05:03:29;;;;;;;15.40;3.55;;;;;;;-144.73;100.00;54715.59;4979520;28;20047;-72
2023/12/14 05:05:55;;;;;;;10.00;3.55;;;;;;;-144.73;100.00;54713.53;4984680;28;20030;-72
2023/12/14 05:08:20;;;;;;;8.98;2.90;;;;;;;-144.73;100.00;54715.59;4976949;28;20038;-73
2023/12/14 05:10:45;;;;;;;4.43;3.20;;;;;;;-144.73;100.00;54707.38;4974173;28;20030;-73
2023/12/14 05:13:11;;;;;;;9.55;3.33;;;;;;;-144.73;100.00;54725.84;4975077;28;20042;-72
2023/12/14 05:15:36;;;;;;;10.77;3.55;;;;;;;-144.73;100.00;54727.91;4972847;28;20113;-72
2023/12/14 05:18:01;;;;;;;13.40;3.33;;;;;;;-144.73;100.00;54707.38;4977215;28;20078;-72
2023/12/14 05:20:27;;;;;;;12.93;3.75;;;;;;;-144.73;100.00;54756.66;4990310;28;20045;-73
2023/12/14 05:22:52;;;;;;;9.40;4.25;;;;;;;-144.73;100.00;54732.00;4986032;28;20035;-72
2023/12/14 05:25:18;;;;;;;10.85;4.07;;;;;;;-144.73;100.00;54727.91;4983802;28;20023;-72
2023/12/14 05:27:43;;;;;;;13.10;3.85;;;;;;;-144.73;100.00;54711.47;4985201;28;20035;-72
2023/12/14 05:30:09;;;;;;;12.02;3.97;;;;;;;-144.73;100.00;54748.44;4975845;28;20026;-73
2023/12/14 05:32:34;;;;;;;12.52;4.13;;;;;;;-144.73;100.00;54690.97;4980510;28;20049;-72
2023/12/14 05:35:00;;;;;;;12.20;4.45;;;;;;;-144.73;100.00;54736.13;4985233;28;20026;-72
2023/12/14 05:37:25;;;;;;;15.40;4.95;;;;;;;-144.73;100.00;54732.00;4977999;28;20046;-72
2023/12/14 05:39:50;;;;;;;9.65;4.20;;;;;;;-144.73;100.00;54732.00;4980366;28;20026;-72
2023/12/14 05:42:17;;;;;;;12.90;4.50;;;;;;;-144.73;100.00;54727.91;4977955;28;20041;-74
2023/12/14 05:44:46;;;;;;;14.20;5.57;;;;;;;-144.73;100.00;54768.97;4982839;28;20026;-72
2023/12/14 05:47:11;;;;;;;14.38;5.18;;;;;;;-144.73;100.00;54768.97;4972126;28;20401;-73
2023/12/14 05:49:41;;;;;;;13.93;5.40;;;;;;;-144.73;100.00;54699.16;4983783;28;20026;-73
2023/12/14 05:52:07;;;;;;;9.98;4.63;;;;;;;-144.73;100.00;54744.31;4976258;28;20061;-72
2023/12/14 05:54:32;;;;;;;15.95;7.65;;;;;;;-144.73;100.00;54682.75;4974303;28;20055;-72
2023/12/14 05:56:58;;;;;;;21.23;7.63;;;;;;;-144.73;100.00;54748.44;4979696;28;20100;-72
2023/12/14 05:59:23;;;;;;;18.50;6.10;;;;;;;-144.73;100.00;54732.00;4987491;28;20030;-72
2023/12/14 06:01:48;;;;;;;15.23;5.60;;;;;;;-144.73;100.00;54732.00;4978957;28;20027;-72
2023/12/14 06:04:14;;;;;;;12.10;5.03;;;;;;;-144.73;100.00;54756.66;4982691;28;20500;-72
2023/12/14 06:06:40;;;;;;;16.17;6.90;;;;;;;-144.73;100.00;54699.16;4979976;28;20023;-72
2023/12/14 06:09:07;;;;;;;14.13;5.82;;;;;;;-144.73;100.00;54740.22;4982331;28;20102;-73
2023/12/14 06:11:33;;;;;;;18.83;6.55;;;;;;;-144.73;100.00;54748.44;4984907;28;20069;-72
2023/12/14 06:13:59;;;;;;;17.45;5.90;;;;;;;-144.73;100.00;54740.22;4983668;28;20031;-72
2023/12/14 06:16:25;;;;;;;11.25;5.45;;;;;;;-144.73;100.00;54736.13;4980659;28;20034;-72
2023/12/14 06:18:50;;;;;;;18.48;7.30;;;;;;;-144.73;100.00;54686.84;4977025;28;20045;-72
2023/12/14 06:21:16;;;;;;;17.23;7.05;;;;;;;-144.73;100.00;54711.47;4980248;28;20058;-72
2023/12/14 06:23:41;;;;;;;19.65;6.88;;;;;;;-144.73;100.00;54721.75;4975466;28;20038;-72
2023/12/14 06:26:06;;;;;;;29.85;8.63;;;;;;;-144.73;100.00;54725.84;4976920;28;20018;-73
2023/12/14 06:28:32;;;;;;;27.88;7.45;;;;;;;-144.73;100.00;54703.28;4980727;28;20038;-73
2023/12/14 06:30:58;;;;;;;18.23;7.53;;;;;;;-144.73;100.00;54746.38;4989530;28;20027;-73
2023/12/14 06:33:23;;;;;;;28.13;7.50;;;;;;;-144.73;100.00;54719.69;4987599;28;20510;-73
2023/12/14 06:35:51;;;;;;;26.90;13.13;;;;;;;-144.73;100.00;54744.31;4986752;28;20048;-73
2023/12/14 06:38:17;;;;;;;26.92;10.65;;;;;;;-144.73;100.00;54711.47;4975864;28;20129;-73
2023/12/14 06:40:42;;;;;;;21.98;9.27;;;;;;;-144.73;100.00;54715.59;4979634;28;20145;-72
2023/12/14 06:43:08;;;;;;;28.55;9.95;;;;;;;-144.73;100.00;54670.44;4980831;28;20034;-72
2023/12/14 06:45:36;;;;;;;18.77;9.00;;;;;;;-144.73;100.00;54690.97;4993559;28;20048;-73
2023/12/14 06:48:03;;;;;;;27.25;9.52;;;;;;;-144.73;100.00;54727.91;4993587;28;20073;-73
2023/12/14 06:50:28;;;;;;;22.30;10.10;;;;;;;-144.73;100.00;54723.81;4988288;28;20473;-72
2023/12/14 06:52:54;;;;;;;24.67;10.05;;;;;;;-144.73;100.00;54703.28;4986665;28;20054;-73
2023/12/14 06:55:19;;;;;;;23.77;9.40;;;;;;;-144.73;100.00;54719.69;4982922;28;20105;-73
2023/12/14 06:57:46;;;;;;;20.45;8.98;;;;;;;-144.73;100.00;54756.66;4978542;28;20053;-72
2023/12/14 07:00:13;;;;;;;30.25;10.57;;;;;;;-144.73;100.00;54645.78;4980566;28;20026;-72
2023/12/14 07:02:39;;;;;;;21.63;10.23;;;;;;;-144.73;100.00;54703.28;4986268;28;20031;-72
2023/12/14 07:05:04;;;;;;;29.45;10.60;;;;;;;-144.73;100.00;54715.59;4979707;28;20111;-73
2023/12/14 07:07:30;;;;;;;21.40;10.25;;;;;;;-144.73;100.00;54723.81;4992721;28;20042;-73
2023/12/14 07:09:58;;;;;;;33.75;11.75;;;;;;;-144.73;100.00;54699.16;4977105;28;20038;-72
2023/12/14 07:12:27;;;;;;;21.90;9.73;;;;;;;-144.73;100.00;54740.22;4983147;28;20125;-72
2023/12/14 07:14:52;;;;;;;21.75;9.32;;;;;;;-144.73;100.00;54674.53;4979611;28;20030;-73
2023/12/14 07:17:18;;;;;;;26.98;10.15;;;;;;;-144.73;100.00;54690.97;4982247;28;20090;-72
2023/12/14 07:19:44;;;;;;;30.40;10.60;;;;;;;-144.73;100.00;54719.69;4984081;28;20030;-73
2023/12/14 07:22:09;;;;;;;19.38;9.60;;;;;;;-144.73;100.00;54715.59;4982496;28;20041;-75
2023/12/14 07:24:35;;;;;;;24.77;10.48;;;;;;;-144.73;100.00;54707.38;4987168;28;20053;-74
2023/12/14 07:27:03;;;;;;;18.63;9.43;;;;;;;-144.73;100.00;54707.38;4985134;28;20030;-75
2023/12/14 07:29:29;;;;;;;24.88;10.43;;;;;;;-144.73;100.00;54690.97;4981201;28;20034;-74
2023/12/14 07:31:54;;;;;;;24.38;11.73;;;;;;;-144.73;100.00;54719.69;4985541;28;20030;-74
2023/12/14 07:34:20;;;;;;;23.75;11.18;;;;;;;-144.73;100.00;54727.91;4982645;28;20022;-74
2023/12/14 07:36:46;;;;;;;31.30;13.35;;;;;;;-144.73;100.00;54764.84;4986386;28;20069;-76
2023/12/14 07:39:12;;;;;;;27.00;11.43;;;;;;;-144.73;100.00;54732.00;4984226;28;20109;-74
2023/12/14 07:41:37;;;;;;;23.83;11.57;;;;;;;-144.73;100.00;54752.53;4983229;28;20409;-74
2023/12/14 07:44:04;;;;;;;23.98;13.32;;;;;;;-144.73;100.00;54699.16;4979846;28;20026;-74
2023/12/14 07:46:29;;;;;;;34.35;10.63;;;;;;;-144.73;100.00;54742.28;4987274;28;20113;-71
2023/12/14 07:48:55;;;;;;;24.45;10.93;;;;;;;-144.73;100.00;54748.44;4989532;28;20121;-71
2023/12/14 07:51:20;;;;;;;28.50;9.90;;;;;;;-144.73;100.00;54711.47;4990986;28;20069;-72
2023/12/14 07:53:46;;;;;;;21.05;8.98;;;;;;;-144.73;100.00;54707.38;4980470;28;20043;-72
2023/12/14 07:56:12;;;;;;;19.60;9.75;;;;;;;-144.73;100.00;54711.47;4981013;28;20034;-72
2023/12/14 07:58:37;;;;;;;20.02;9.80;;;;;;;-144.73;100.00;54707.38;4980018;28;20085;-72
2023/12/14 08:01:03;;;;;;;20.00;8.50;;;;;;;-144.73;100.00;54719.69;4979595;28;20034;-72
2023/12/14 08:03:28;;;;;;;18.73;9.38;;;;;;;-144.73;100.00;54736.13;4977006;28;20038;-71
2023/12/14 08:05:53;;;;;;;16.35;8.75;;;;;;;-144.73;100.00;54695.06;4980136;28;20030;-72
2023/12/14 08:08:19;;;;;;;18.42;9.63;;;;;;;-144.73;100.00;54715.59;4985073;28;20387;-72
2023/12/14 08:10:44;;;;;;;20.27;9.45;;;;;;;-144.73;100.00;54736.13;4985020;28;20062;-69
2023/12/14 08:13:09;;;;;;;31.35;9.82;;;;;;;-144.73;100.00;54732.00;4980018;28;20081;-70
2023/12/14 08:15:35;;;;;;;18.00;8.68;;;;;;;-144.73;100.00;54682.75;4989162;28;20485;-71
2023/12/14 08:18:00;;;;;;;19.70;9.63;;;;;;;-144.73;100.00;54719.69;4974113;28;20057;-71
2023/12/14 08:20:26;;;;;;;21.55;10.35;;;;;;;-144.73;100.00;54695.06;4980139;28;20038;-72
2023/12/14 08:22:52;;;;;;;16.70;8.93;;;;;;;-144.73;100.00;54723.81;4975538;28;20043;-71
2023/12/14 08:25:17;;;;;;;16.67;8.43;;;;;;;-144.73;100.00;54711.47;4980439;28;20121;-71
2023/12/14 08:27:46;;;;;;;18.70;8.25;;;;;;;-144.73;100.00;54719.69;4972677;28;20035;-71
2023/12/14 08:30:12;;;;;;;25.08;9.10;;;;;;;-144.73;100.00;54715.59;4980069;28;20122;-72
2023/12/14 08:32:38;;;;;;;25.80;9.65;;;;;;;-144.73;100.00;54662.22;4972987;28;20066;-72
2023/12/14 08:35:04;;;;;;;17.45;8.70;;;;;;;-144.73;100.00;54729.97;4977418;28;20070;-72
2023/12/14 08:37:29;;;;;;;20.50;9.50;;;;;;;-144.73;100.00;54711.47;4978986;28;20379;-72
2023/12/14 08:39:58;;;;;;;16.38;7.97;;;;;;;-144.73;100.00;54734.06;4984071;28;20084;-72
2023/12/14 08:42:23;;;;;;;20.02;9.52;;;;;;;-144.73;100.00;54727.91;4981199;28;20039;-72
2023/12/14 08:44:49;;;;;;;18.90;9.30;;;;;;;-144.73;100.00;54756.66;4984613;28;20038;-71
2023/12/14 08:47:14;;;;;;;23.35;9.10;;;;;;;-144.73;100.00;54719.69;4984778;28;20039;-71
2023/12/14 08:49:39;;;;;;;18.15;7.97;;;;;;;-144.73;100.00;54699.16;4985566;28;20022;-72
2023/12/14 08:52:05;;;;;;;15.98;7.93;;;;;;;-144.73;100.00;54723.81;4986854;28;20108;-71
2023/12/14 08:54:30;;;;;;;16.33;8.48;;;;;;;-144.73;100.00;54715.59;4987184;28;20026;-71
2023/12/14 08:56:56;;;;;;;22.55;8.63;;;;;;;-144.73;100.00;54740.22;4981813;28;20502;-71
2023/12/14 08:59:21;;;;;;;21.52;9.40;;;;;;;-144.73;100.00;54736.13;4978504;28;20062;-71
2023/12/14 09:01:47;;;;;;;20.60;8.13;;;;;;;-144.73;100.00;54719.69;4988840;28;20037;-71
2023/12/14 09:04:13;;;;;;;15.25;8.30;;;;;;;-144.73;100.00;54752.53;4979390;28;20031;-71
2023/12/14 09:06:42;;;;;;;16.33;7.95;;;;;;;-144.73;100.00;54699.16;4978555;28;20030;-71
2023/12/14 09:09:07;;;;;;;17.08;8.57;;;;;;;-144.73;100.00;54740.22;4989885;28;20101;-71
2023/12/14 09:11:34;;;;;;;17.52;8.65;;;;;;;-144.73;100.00;54695.06;4983565;28;20105;-71
2023/12/14 09:14:00;;;;;;;20.92;8.77;;;;;;;-144.73;100.00;54732.00;4978860;28;20055;-72
2023/12/14 09:16:25;;;;;;;19.65;8.40;;;;;;;-144.73;100.00;54723.81;4978662;28;20057;-72
2023/12/14 09:18:51;;;;;;;16.27;8.20;;;;;;;-144.73;100.00;54752.53;4973584;28;20117;-72
2023/12/14 09:21:16;;;;;;;15.40;8.32;;;;;;;-144.73;100.00;54719.69;4973622;28;20078;-72
2023/12/14 09:23:42;;;;;;;17.13;8.70;;;;;;;-144.73;100.00;54707.38;4978605;28;20465;-72
2023/12/14 09:26:07;;;;;;;16.63;7.30;;;;;;;-144.73;100.00;54709.44;4975306;28;20026;-71
2023/12/14 09:28:33;;;;;;;17.42;7.47;;;;;;;-144.73;100.00;54676.59;4973747;28;20378;-71
2023/12/14 09:30:58;;;;;;;14.68;8.55;;;;;;;-144.73;100.00;54732.00;4983335;28;20397;-71
2023/12/14 09:33:23;;;;;;;18.08;8.55;;;;;;;-144.73;100.00;54707.38;4975291;28;20038;-72
2023/12/14 09:35:49;;;;;;;16.38;7.65;;;;;;;-144.73;100.00;54723.81;4979657;28;20121;-72
2023/12/14 09:38:17;;;;;;;17.88;7.40;;;;;;;-144.73;100.00;54715.59;4972047;28;20039;-71
2023/12/14 09:40:44;;;;;;;15.13;7.65;;;;;;;-144.73;100.00;54707.38;4987652;28;20026;-70
2023/12/14 09:43:09;;;;;;;15.48;7.78;;;;;;;-144.73;100.00;54723.81;4982981;28;20062;-73
2023/12/14 09:45:36;;;;;;;17.00;7.82;;;;;;;-144.73;100.00;54744.31;4983673;28;20051;-70
2023/12/14 09:48:02;;;;;;;20.63;8.57;;;;;;;-144.73;100.00;54684.78;4985381;28;20035;-72
2023/12/14 09:50:29;;;;;;;21.23;9.27;;;;;;;-144.73;100.00;54707.38;4983233;28;20022;-72
2023/12/14 09:52:54;;;;;;;21.85;9.73;;;;;;;-144.73;100.00;54719.69;4981599;28;20045;-72
2023/12/14 09:55:20;;;;;;;15.40;9.25;;;;;;;-144.73;100.00;54703.28;4978714;28;20029;-71
2023/12/14 09:57:45;;;;;;;16.85;8.07;;;;;;;-144.73;100.00;54707.38;4975228;28;20054;-70
2023/12/14 10:00:13;;;;;;;29.25;9.70;;;;;;;-144.73;100.00;54703.28;4976094;28;20319;-71
2023/12/14 10:02:39;;;;;;;18.20;9.68;;;;;;;-144.73;100.00;54703.28;4980181;28;20046;-71
2023/12/14 10:05:10;;;;;;;27.67;11.23;;;;;;;-144.73;100.00;54732.00;4979657;28;20065;-72
2023/12/14 10:07:41;;;;;;;16.95;9.55;;;;;;;-144.73;100.00;54670.44;4979467;28;20429;-71
2023/12/14 10:10:13;;;;;;;20.50;9.68;;;;;;;-144.73;100.00;54707.38;4978483;28;20040;-71
2023/12/14 10:12:54;;;;;;;17.60;8.95;;;;;;;-144.73;100.00;54670.44;4978806;28;20042;-71
2023/12/14 10:15:20;;;;;;;16.13;9.55;;;;;;;-144.73;100.00;54727.91;4986771;28;20018;-71
2023/12/14 10:17:52;;;;;;;17.00;9.13;;;;;;;-144.73;100.00;54727.91;4982439;28;20050;-72
2023/12/14 10:20:21;;;;;;;20.40;9.25;;;;;;;-144.73;100.00;54707.38;4976759;28;20097;-72
2023/12/14 10:22:51;;;;;;;18.45;8.77;;;;;;;-144.73;100.00;54707.38;4984797;28;20600;-73
2023/12/14 10:25:20;;;;;;;17.95;8.35;;;;;;;-144.73;100.00;54723.81;4975940;28;20030;-71
2023/12/14 10:27:47;;;;;;;13.68;7.75;;;;;;;-144.73;100.00;54711.47;4979180;28;20202;-69
2023/12/14 10:30:13;;;;;;;23.55;9.05;;;;;;;-144.73;100.00;54707.38;4974814;28;20031;-71
2023/12/14 10:32:40;;;;;;;11.73;7.70;;;;;;;-144.73;100.00;54740.22;4982515;28;20185;-71
2023/12/14 10:35:06;;;;;;;13.93;7.28;;;;;;;-144.73;100.00;54723.81;4980990;28;20033;-70
2023/12/14 10:37:37;;;;;;;16.83;7.50;;;;;;;-144.73;100.00;54688.91;4979102;28;20026;-70
2023/12/14 10:40:05;;;;;;;18.65;7.85;;;;;;;-144.73;100.00;54703.28;4979627;28;20022;-71
2023/12/14 10:42:32;;;;;;;15.02;6.85;;;;;;;-144.73;100.00;54688.91;4973279;28;20042;-69
2023/12/14 10:45:02;;;;;;;14.75;7.40;;;;;;;-144.73;100.00;54744.31;4981042;28;20129;-71
2023/12/14 10:47:27;;;;;;;12.30;6.35;;;;;;;-144.73;100.00;54709.44;4976839;28;20082;-71
2023/12/14 10:49:54;;;;;;;19.05;6.85;;;;;;;-144.73;100.00;54678.63;4981203;28;20030;-70
2023/12/14 10:52:22;;;;;;;15.73;7.38;;;;;;;-144.73;100.00;54719.69;4978273;28;20035;-70
2023/12/14 10:54:56;;;;;;;16.92;6.82;;;;;;;-144.73;100.00;54744.31;4980862;28;20486;-71
2023/12/14 10:57:22;;;;;;;17.92;8.13;;;;;;;-144.73;100.00;54703.28;4978265;28;20037;-71
2023/12/14 10:59:58;;;;;;;13.60;6.65;;;;;;;-144.73;100.00;54723.81;4978322;28;20022;-71